Time;durP1;ratioP1;P1;durP2;ratioP2;P2;SDS_P1;SDS_P2;PMS_P1;PMS_P2;Temp;Humidity;BMP_temperature;BMP_pressure;BME280_temperature;BME280_humidity;BME280_pressure;Samples;Min_cycle;Max_cycle;Signal;HPM_P1;HPM_P2
2023/10/28 00:01:47;;;;;;;;;;;11.10;99.90;;;;;;4893450;29;19919;-74
2023/10/28 00:04:16;;;;;;;;;;;11.10;99.90;;;;;;4877422;29;20176;-76
2023/10/28 00:06:47;;;;;;;;;;;11.10;99.90;;;;;;4878851;29;19983;-76
2023/10/28 00:09:12;;;;;;;;;;;11.00;99.90;;;;;;4892865;29;19911;-75
2023/10/28 00:11:38;;;;;;;;;;;11.10;99.90;;;;;;4908709;29;19939;-75
2023/10/28 00:14:07;;;;;;;;;;;11.00;99.90;;;;;;4908546;29;20268;-75
2023/10/28 00:16:36;;;;;;;;;;;11.00;99.90;;;;;;4908638;29;19917;-77
2023/10/28 00:19:03;;;;;;;;;;;11.00;99.90;;;;;;4905102;29;19911;-76
2023/10/28 00:21:32;;;;;;;;;;;11.00;99.90;;;;;;4908967;29;19911;-75
2023/10/28 00:23:57;;;;;;;;;;;11.00;99.90;;;;;;4908196;29;20133;-75
2023/10/28 00:26:23;;;;;;;;;;;11.00;99.90;;;;;;4908683;29;19908;-75
2023/10/28 00:28:49;;;;;;;;;;;11.00;99.90;;;;;;4908463;29;19950;-76
2023/10/28 12:30:33;;;;;;;;;;;15.60;91.30;;;;;;5121986;23;19923;-76
2023/10/28 12:33:30;;;;;;;;;;;16.10;90.90;;;;;;4895020;29;20158;-77
2023/10/28 12:36:30;;;;;;;;;;;16.20;90.60;;;;;;4895948;29;19989;-78
2023/10/28 12:42:49;;;;;;;;;;;16.70;90.10;;;;;;4857622;29;19916;-76
2023/10/28 12:45:48;;;;;;;;;;;17.00;88.40;;;;;;4845339;29;20151;-76
2023/10/28 12:48:14;;;;;;;;;;;17.10;88.00;;;;;;4858102;29;19964;-78
2023/10/28 12:50:42;;;;;;;;;;;17.00;88.10;;;;;;4850555;29;19912;-78
2023/10/28 12:53:08;;;;;;;;;;;16.90;89.30;;;;;;4870745;29;20016;-76
2023/10/28 12:55:33;;;;;;;;;;;16.90;90.90;;;;;;4870664;29;19916;-78
2023/10/28 12:58:11;;;;;;;;;;;17.00;89.60;;;;;;4853113;29;19966;-78
2023/10/28 13:00:40;;;;;;;;;;;17.10;89.30;;;;;;4852944;29;19957;-81
2023/10/28 13:03:09;;;;;;;;;;;16.90;87.00;;;;;;4871017;29;19942;-78
2023/10/28 13:05:55;;;;;;;;;;;16.90;86.80;;;;;;4839474;29;19920;-81
2023/10/28 13:08:32;;;;;;;;;;;16.90;86.50;;;;;;4870696;29;19916;-79
2023/10/28 13:15:10;;;;;;;;;;;16.90;87.50;;;;;;4801631;29;19929;-78
2023/10/28 13:18:07;;;;;;;;;;;16.90;88.60;;;;;;4833683;29;19929;-77
2023/10/28 13:21:00;;;;;;;;;;;17.10;87.50;;;;;;4818021;29;19939;-79
2023/10/28 13:27:15;;;;;;;;;;;16.70;87.90;;;;;;4851774;29;19923;-78
2023/10/28 13:29:52;;;;;;;;;;;16.40;88.40;;;;;;4826546;29;20159;-79
2023/10/28 13:36:27;;;;;;;;;;;16.00;89.30;;;;;;4849343;29;19953;-76
2023/10/28 13:38:53;;;;;;;;;;;15.80;89.20;;;;;;4825565;29;20210;-76
2023/10/28 13:42:00;;;;;;;;;;;15.90;89.60;;;;;;4834001;29;19920;-77
2023/10/28 13:44:57;;;;;;;;;;;15.90;89.70;;;;;;4833954;29;20024;-78
2023/10/28 13:47:54;;;;;;;;;;;15.70;90.20;;;;;;4832874;29;19919;-76
2023/10/28 13:50:23;;;;;;;;;;;15.80;90.40;;;;;;4852060;29;19911;-77
2023/10/28 13:52:58;;;;;;;;;;;15.70;90.20;;;;;;4888636;29;19911;-77
2023/10/28 13:58:57;;;;;;;;;;;15.50;90.80;;;;;;4870266;29;19918;-79
2023/10/28 14:01:50;;;;;;;;;;;15.50;91.00;;;;;;4905188;29;19979;-77
2023/10/28 14:04:20;;;;;;;;;;;15.50;91.30;;;;;;4892149;29;19948;-78
2023/10/28 14:06:46;;;;;;;;;;;15.50;91.20;;;;;;4907006;29;19916;-77
2023/10/28 14:09:15;;;;;;;;;;;15.50;91.10;;;;;;4924282;29;20113;-78
2023/10/28 14:12:12;;;;;;;;;;;15.70;90.70;;;;;;4877338;29;21192;-78
2023/10/28 14:17:50;;;;;;;;;;;16.00;90.50;;;;;;4860653;29;19999;-79
2023/10/28 14:20:22;;;;;;;;;;;16.00;90.40;;;;;;4835576;29;19923;-77
2023/10/28 14:23:05;;;;;;;;;;;16.00;90.70;;;;;;4834820;29;19917;-77
2023/10/28 14:25:55;;;;;;;;;;;15.90;90.80;;;;;;4835397;29;19934;-77
2023/10/28 14:31:17;;;;;;;;;;;15.70;91.70;;;;;;4840984;29;19921;-77
2023/10/28 14:33:49;;;;;;;;;;;15.70;92.70;;;;;;4838637;29;20222;-77
2023/10/28 14:36:39;;;;;;;;;;;15.60;93.50;;;;;;4838648;29;19986;-78
2023/10/28 14:39:08;;;;;;;;;;;15.40;93.10;;;;;;4849665;29;20404;-78
2023/10/28 14:41:37;;;;;;;;;;;15.30;93.50;;;;;;4817668;29;19913;-77
2023/10/28 14:44:04;;;;;;;;;;;15.10;94.00;;;;;;4846377;29;19947;-78
2023/10/28 14:46:36;;;;;;;;;;;15.00;94.60;;;;;;4835251;29;19924;-77
2023/10/28 14:49:01;;;;;;;;;;;14.90;94.40;;;;;;4850457;29;19913;-78
2023/10/28 14:51:30;;;;;;;;;;;14.80;94.30;;;;;;4847028;29;20213;-79
2023/10/28 14:54:08;;;;;;;;;;;14.80;94.30;;;;;;4860848;29;19944;-83
2023/10/28 14:56:39;;;;;;;;;;;14.80;94.20;;;;;;4910219;29;19982;-80
2023/10/28 14:59:06;;;;;;;;;;;14.70;94.20;;;;;;4922789;29;19912;-80
2023/10/28 15:01:35;;;;;;;;;;;14.60;94.40;;;;;;4926480;29;19911;-78
2023/10/28 15:04:06;;;;;;;;;;;14.60;94.80;;;;;;4910190;29;19907;-79
2023/10/28 15:06:36;;;;;;;;;;;14.50;94.60;;;;;;4926910;29;19919;-82
2023/10/28 15:09:05;;;;;;;;;;;14.50;95.00;;;;;;4909507;29;20165;-80
2023/10/28 15:11:35;;;;;;;;;;;14.40;95.30;;;;;;4909959;29;19914;-77
2023/10/28 15:14:09;;;;;;;;;;;14.40;95.30;;;;;;4926930;29;19915;-79
2023/10/28 15:16:35;;;;;;;;;;;14.40;95.20;;;;;;4924301;29;19922;-77
2023/10/28 15:19:00;;;;;;;;;;;14.40;95.50;;;;;;4890548;29;19911;-75
2023/10/28 15:21:44;;;;;;;;;;;14.40;95.50;;;;;;4891537;29;19912;-77
2023/10/28 15:27:06;;;;;;;;;;;14.30;95.50;;;;;;4911954;29;20212;-78
2023/10/28 15:29:35;;;;;;;;;;;14.30;95.40;;;;;;4904741;29;19919;-79
2023/10/28 15:32:01;;;;;;;;;;;14.30;95.40;;;;;;4926514;29;19919;-78
2023/10/28 15:34:26;;;;;;;;;;;14.30;95.60;;;;;;4894881;29;19913;-77
2023/10/28 15:36:52;;;;;;;;;;;14.20;95.60;;;;;;4922783;29;20220;-78
2023/10/28 15:39:24;;;;;;;;;;;14.20;95.70;;;;;;4891101;29;20030;-77
2023/10/28 15:41:58;;;;;;;;;;;14.20;95.90;;;;;;4898643;29;20082;-77
2023/10/28 15:44:24;;;;;;;;;;;14.20;95.90;;;;;;4912261;29;19978;-75
2023/10/28 15:46:50;;;;;;;;;;;14.10;96.10;;;;;;4896935;29;19911;-74
2023/10/28 15:49:15;;;;;;;;;;;14.10;95.80;;;;;;4929697;29;19907;-76
2023/10/28 15:51:41;;;;;;;;;;;14.10;95.70;;;;;;4897491;29;20093;-75
2023/10/28 15:54:09;;;;;;;;;;;14.10;95.60;;;;;;4913289;29;19981;-78
2023/10/28 15:56:39;;;;;;;;;;;14.10;95.50;;;;;;4917868;29;19939;-78
2023/10/28 15:59:07;;;;;;;;;;;14.10;95.30;;;;;;4934787;29;19967;-79
2023/10/28 16:01:53;;;;;;;;;;;14.10;95.00;;;;;;4920773;29;19922;-79
2023/10/28 16:04:19;;;;;;;;;;;14.10;94.80;;;;;;4935243;29;19911;-79
2023/10/28 16:06:45;;;;;;;;;;;14.10;95.00;;;;;;4918278;29;19915;-79
2023/10/28 16:09:15;;;;;;;;;;;14.20;95.10;;;;;;4934382;29;20190;-78
2023/10/28 16:12:13;;;;;;;;;;;14.10;94.80;;;;;;4933729;29;19922;-78
2023/10/28 16:15:01;;;;;;;;;;;14.10;94.50;;;;;;4919436;29;20056;-78
2023/10/28 16:17:27;;;;;;;;;;;14.10;94.90;;;;;;4935072;29;20297;-79
2023/10/28 16:20:18;;;;;;;;;;;14.10;95.30;;;;;;4936463;29;19921;-78
2023/10/28 16:22:43;;;;;;;;;;;14.10;95.40;;;;;;4933120;29;19922;-78
2023/10/28 16:28:36;;;;;;;;;;;14.10;95.70;;;;;;4924875;29;19918;-79
2023/10/28 16:31:09;;;;;;;;;;;14.10;95.10;;;;;;4925492;29;19926;-80
2023/10/28 16:33:53;;;;;;;;;;;14.00;95.90;;;;;;4914605;29;19938;-77
2023/10/28 16:36:43;;;;;;;;;;;14.00;96.10;;;;;;4927040;29;19959;-77
2023/10/28 16:39:11;;;;;;;;;;;14.00;95.90;;;;;;4929661;29;19943;-78
2023/10/28 16:41:51;;;;;;;;;;;;;;;;;;;;;
2023/10/28 16:45:16;;;;;;;;;;;13.90;95.40;;;;;;4931560;29;19918;-78
2023/10/28 16:47:41;;;;;;;;;;;13.90;95.70;;;;;;4856538;29;19919;-78
2023/10/28 16:50:19;;;;;;;;;;;13.90;95.70;;;;;;4852244;29;19948;-78
2023/10/28 16:53:26;;;;;;;;;;;13.90;95.90;;;;;;4810322;29;19929;-80
2023/10/28 16:56:15;;;;;;;;;;;13.90;95.90;;;;;;4782051;30;19914;-78
2023/10/28 16:58:43;;;;;;;;;;;13.80;95.70;;;;;;4782606;30;19922;-78
2023/10/28 17:01:13;;;;;;;;;;;13.90;96.10;;;;;;4793306;30;19977;-79
2023/10/28 17:03:59;;;;;;;;;;;13.90;96.20;;;;;;4798235;30;19916;-77
2023/10/28 17:12:37;;;;;;;;;;;13.80;95.90;;;;;;4780257;30;19921;-77
2023/10/28 17:15:36;;;;;;;;;;;13.80;96.10;;;;;;4766080;30;19986;-78
2023/10/28 17:18:39;;;;;;;;;;;13.80;96.60;;;;;;4781930;30;19922;-78
2023/10/28 17:21:31;;;;;;;;;;;13.80;96.50;;;;;;4777779;30;19924;-78
2023/10/28 17:24:05;;;;;;;;;;;13.80;96.30;;;;;;4828337;29;19912;-79
2023/10/28 17:26:31;;;;;;;;;;;13.80;96.50;;;;;;4844703;29;19924;-78
2023/10/28 17:29:06;;;;;;;;;;;13.70;96.40;;;;;;4891254;29;20079;-80
2023/10/28 17:31:51;;;;;;;;;;;13.80;96.50;;;;;;4866158;29;20174;-78
2023/10/28 17:34:30;;;;;;;;;;;13.80;96.50;;;;;;4878381;29;19931;-79
2023/10/28 17:36:55;;;;;;;;;;;13.70;96.50;;;;;;4879798;29;19911;-79
2023/10/28 17:39:21;;;;;;;;;;;13.70;96.50;;;;;;4894194;29;19918;-78
2023/10/28 17:42:22;;;;;;;;;;;13.70;97.00;;;;;;4830217;29;19913;-79
2023/10/28 17:45:19;;;;;;;;;;;13.60;97.00;;;;;;4813978;29;19928;-78
2023/10/28 17:48:12;;;;;;;;;;;13.60;96.80;;;;;;4828277;29;19920;-79
2023/10/28 17:50:47;;;;;;;;;;;13.50;97.00;;;;;;4838571;29;19953;-78
2023/10/28 17:54:15;;;;;;;;;;;13.50;96.80;;;;;;4844586;29;19935;-79
2023/10/28 17:57:01;;;;;;;;;;;13.50;97.20;;;;;;4789277;30;19913;-78
2023/10/28 18:09:58;;;;;;;;;;;13.40;97.50;;;;;;4875292;29;19923;-78
2023/10/28 18:12:49;;;;;;;;;;;13.40;97.30;;;;;;4875022;29;19919;-79
2023/10/28 18:19:11;;;;;;;;;;;13.40;96.90;;;;;;4835750;29;19919;-79
2023/10/28 18:21:52;;;;;;;;;;;13.40;97.10;;;;;;4838166;29;19913;-80
2023/10/28 18:24:21;;;;;;;;;;;13.40;97.10;;;;;;4833328;29;20217;-76
2023/10/28 18:27:21;;;;;;;;;;;13.30;97.40;;;;;;4815200;29;19940;-76
2023/10/28 18:30:24;;;;;;;;;;;13.30;97.40;;;;;;4812268;29;19957;-77
2023/10/28 18:36:28;;;;;;;;;;;13.20;97.70;;;;;;4884959;29;19919;-77
2023/10/28 18:38:57;;;;;;;;;;;13.20;97.70;;;;;;4887859;29;19919;-77
2023/10/28 18:41:53;;;;;;;;;;;13.10;97.80;;;;;;4896756;29;19912;-77
2023/10/28 18:44:25;;;;;;;;;;;13.20;98.10;;;;;;4897691;29;19912;-77
2023/10/28 18:46:56;;;;;;;;;;;13.20;98.30;;;;;;4923424;29;19920;-78
2023/10/28 18:49:22;;;;;;;;;;;13.10;98.40;;;;;;4907206;29;19951;-77
2023/10/28 19:08:21;;;;;;;;;;;12.90;99.00;;;;;;4926492;29;20010;-77
2023/10/28 19:10:57;;;;;;;;;;;13.00;98.90;;;;;;4910494;29;20201;-78
2023/10/28 19:17:31;;;;;;;;;;;13.00;98.50;;;;;;4927900;29;19949;-77
2023/10/28 19:20:00;;;;;;;;;;;12.90;99.00;;;;;;4916506;29;19919;-77
2023/10/28 19:22:47;;;;;;;;;;;12.80;99.30;;;;;;4913260;29;19970;-77
2023/10/28 19:25:14;;;;;;;;;;;12.70;99.50;;;;;;4896995;29;19923;-78
2023/10/28 19:27:44;;;;;;;;;;;12.50;99.60;;;;;;4910577;29;19951;-77
2023/10/28 19:30:21;;;;;;;;;;;12.50;99.60;;;;;;4867582;29;19923;-76
2023/10/28 19:32:47;;;;;;;;;;;12.40;99.80;;;;;;4894308;29;19912;-76
2023/10/28 19:35:13;;;;;;;;;;;12.30;99.90;;;;;;4893490;29;19959;-77
2023/10/28 19:37:47;;;;;;;;;;;12.30;99.90;;;;;;4891388;29;19978;-78
2023/10/28 19:40:13;;;;;;;;;;;12.20;99.90;;;;;;4891051;29;19919;-77
2023/10/28 19:42:44;;;;;;;;;;;12.20;99.90;;;;;;4904135;29;19911;-78
2023/10/28 19:45:13;;;;;;;;;;;12.20;99.90;;;;;;4908084;29;20121;-78
2023/10/28 19:47:44;;;;;;;;;;;12.20;99.90;;;;;;4909650;29;20102;-77
2023/10/28 19:50:20;;;;;;;;;;;12.20;99.90;;;;;;4893762;29;19919;-77
2023/10/28 19:53:11;;;;;;;;;;;12.20;99.90;;;;;;4897012;29;19954;-77
2023/10/28 19:55:42;;;;;;;;;;;12.10;99.90;;;;;;4909844;29;19912;-78
2023/10/28 19:58:08;;;;;;;;;;;12.10;99.90;;;;;;4893502;29;19975;-77
2023/10/28 20:00:36;;;;;;;;;;;12.10;99.90;;;;;;4909648;29;19915;-77
2023/10/28 20:03:05;;;;;;;;;;;12.10;99.90;;;;;;4878814;29;19930;-78
2023/10/28 20:05:34;;;;;;;;;;;12.10;99.90;;;;;;4911473;29;20162;-77
2023/10/28 20:08:00;;;;;;;;;;;12.10;99.90;;;;;;4878184;29;19919;-77
2023/10/28 20:10:26;;;;;;;;;;;12.10;99.90;;;;;;4893193;29;19919;-78
2023/10/28 20:12:51;;;;;;;;;;;12.00;99.90;;;;;;4893730;29;19918;-77
2023/10/28 20:15:20;;;;;;;;;;;11.90;99.90;;;;;;4908561;29;20190;-76
2023/10/28 20:17:53;;;;;;;;;;;11.90;99.90;;;;;;4893008;29;19919;-78
2023/10/28 20:20:44;;;;;;;;;;;12.10;99.90;;;;;;4896333;29;20013;-77
2023/10/28 20:23:31;;;;;;;;;;;12.30;99.10;;;;;;4890522;29;19912;-76
2023/10/28 20:26:34;;;;;;;;;;;12.60;98.50;;;;;;4878166;29;20071;-78
2023/10/28 20:33:19;;;;;;;;;;;13.10;97.20;;;;;;4870814;29;19984;-78
2023/10/28 20:36:06;;;;;;;;;;;13.10;97.00;;;;;;4858172;29;19919;-77
2023/10/28 20:38:36;;;;;;;;;;;13.20;96.80;;;;;;4855150;29;19923;-79
2023/10/28 20:41:12;;;;;;;;;;;13.20;97.00;;;;;;4855145;29;19984;-78
2023/10/28 20:43:37;;;;;;;;;;;13.20;96.80;;;;;;4839891;29;19950;-76
2023/10/28 20:46:15;;;;;;;;;;;13.30;96.90;;;;;;4855245;29;19916;-76
2023/10/28 20:48:41;;;;;;;;;;;13.40;96.50;;;;;;4855552;29;20254;-76
2023/10/28 20:51:07;;;;;;;;;;;13.50;96.40;;;;;;4855351;29;19912;-78
2023/10/28 20:53:39;;;;;;;;;;;13.50;96.20;;;;;;4854589;29;19919;-79
2023/10/28 20:56:08;;;;;;;;;;;13.70;96.10;;;;;;4852109;29;19955;-77
2023/10/28 20:58:49;;;;;;;;;;;13.70;96.10;;;;;;4836798;29;19912;-76
2023/10/28 21:01:15;;;;;;;;;;;13.70;96.00;;;;;;4851508;29;19919;-77
2023/10/28 21:03:55;;;;;;;;;;;13.70;95.90;;;;;;4833394;29;19917;-76
2023/10/28 21:06:30;;;;;;;;;;;13.70;95.80;;;;;;4818183;29;20096;-79
2023/10/28 21:09:33;;;;;;;;;;;13.70;95.70;;;;;;4837351;29;19928;-78
2023/10/28 21:11:59;;;;;;;;;;;13.80;95.80;;;;;;4847413;29;19948;-77
2023/10/28 21:14:27;;;;;;;;;;;13.80;95.60;;;;;;4835516;29;19924;-79
2023/10/28 21:20:58;;;;;;;;;;;13.80;95.50;;;;;;4826170;29;19919;-77
2023/10/28 21:24:08;;;;;;;;;;;;;;;;;;;;;
2023/10/28 21:26:46;;;;;;;;;;;13.80;95.50;;;;;;4857351;29;19923;-76
2023/10/28 21:29:14;;;;;;;;;;;13.70;95.40;;;;;;4855930;29;19916;-78
2023/10/28 21:31:47;;;;;;;;;;;13.80;95.50;;;;;;4870520;29;19912;-78
2023/10/28 21:34:49;;;;;;;;;;;13.70;95.40;;;;;;4841561;29;19920;-77
2023/10/28 21:40:27;;;;;;;;;;;13.70;95.50;;;;;;4870781;29;19970;-78
2023/10/28 21:43:16;;;;;;;;;;;13.60;95.60;;;;;;4856433;29;20265;-77
2023/10/28 21:46:08;;;;;;;;;;;13.60;95.60;;;;;;4855990;29;19923;-78
2023/10/28 21:48:47;;;;;;;;;;;13.60;95.70;;;;;;4855596;29;19958;-79
2023/10/28 21:51:16;;;;;;;;;;;13.50;95.70;;;;;;4852317;29;20022;-78
2023/10/28 21:53:47;;;;;;;;;;;13.50;95.40;;;;;;4858945;29;19974;-78
2023/10/28 21:56:16;;;;;;;;;;;13.50;95.40;;;;;;4875309;29;20102;-79
2023/10/28 21:58:42;;;;;;;;;;;13.60;95.30;;;;;;4876208;29;20146;-77
2023/10/28 22:01:16;;;;;;;;;;;13.60;95.30;;;;;;4871321;29;19931;-78
2023/10/28 22:04:07;;;;;;;;;;;13.50;95.30;;;;;;4881630;29;19986;-77
2023/10/28 22:06:32;;;;;;;;;;;13.50;95.80;;;;;;4873404;29;20216;-78
2023/10/28 22:09:01;;;;;;;;;;;13.50;96.60;;;;;;4893607;29;19951;-77
2023/10/28 22:11:27;;;;;;;;;;;13.40;97.00;;;;;;4909343;29;19908;-77
2023/10/28 22:16:50;;;;;;;;;;;13.10;97.90;;;;;;4891914;29;20078;-78
2023/10/28 22:19:20;;;;;;;;;;;13.10;98.10;;;;;;4889719;29;19934;-78
2023/10/28 22:21:53;;;;;;;;;;;13.00;98.30;;;;;;4886441;29;19911;-79
2023/10/28 22:24:20;;;;;;;;;;;12.90;98.60;;;;;;4890655;29;19915;-78
2023/10/28 22:26:46;;;;;;;;;;;12.70;98.90;;;;;;4907687;29;19967;-77
2023/10/28 22:29:13;;;;;;;;;;;12.70;99.50;;;;;;4907968;29;19979;-77
2023/10/28 22:31:44;;;;;;;;;;;12.60;99.40;;;;;;4892631;29;19969;-79
2023/10/28 22:34:13;;;;;;;;;;;12.60;99.50;;;;;;4907777;29;19916;-77
2023/10/28 22:36:39;;;;;;;;;;;12.60;99.60;;;;;;4908362;29;19970;-78
2023/10/28 22:39:05;;;;;;;;;;;12.60;99.80;;;;;;4909049;29;20193;-78
2023/10/28 22:41:30;;;;;;;;;;;12.50;99.70;;;;;;4891323;29;19911;-77
2023/10/28 22:43:58;;;;;;;;;;;12.50;99.90;;;;;;4908130;29;19978;-78
2023/10/28 22:46:27;;;;;;;;;;;12.40;99.90;;;;;;4907502;29;19919;-78
2023/10/28 22:48:55;;;;;;;;;;;12.40;99.90;;;;;;4908707;29;19933;-77
2023/10/28 22:51:21;;;;;;;;;;;12.40;99.90;;;;;;4908129;29;19908;-77
2023/10/28 22:53:49;;;;;;;;;;;12.50;99.90;;;;;;4891641;29;20211;-77
2023/10/28 22:56:30;;;;;;;;;;;12.40;99.90;;;;;;4908036;29;19912;-77
2023/10/28 22:59:23;;;;;;;;;;;12.40;99.90;;;;;;4887803;29;20122;-78
2023/10/28 23:01:49;;;;;;;;;;;12.40;99.90;;;;;;4892879;29;19915;-78
2023/10/28 23:04:39;;;;;;;;;;;12.40;99.90;;;;;;4905363;29;20176;-78
2023/10/28 23:07:50;;;;;;;;;;;12.40;99.90;;;;;;4908840;29;19926;-78
2023/10/28 23:10:26;;;;;;;;;;;12.30;99.90;;;;;;4867747;29;19926;-78
2023/10/28 23:12:54;;;;;;;;;;;12.30;99.90;;;;;;4879716;29;19912;-78
2023/10/28 23:15:24;;;;;;;;;;;12.30;99.90;;;;;;4892087;29;19918;-77
2023/10/28 23:18:42;;;;;;;;;;;12.30;99.90;;;;;;4893499;29;19967;-78
2023/10/28 23:21:08;;;;;;;;;;;12.30;99.90;;;;;;4907528;29;19911;-77
2023/10/28 23:23:43;;;;;;;;;;;12.30;99.90;;;;;;4908193;29;19911;-77
2023/10/28 23:26:11;;;;;;;;;;;12.30;99.90;;;;;;4910656;29;19922;-77
2023/10/28 23:28:46;;;;;;;;;;;12.20;99.90;;;;;;4890970;29;19963;-78
2023/10/28 23:31:12;;;;;;;;;;;12.20;99.90;;;;;;4876158;29;19943;-78
2023/10/28 23:33:41;;;;;;;;;;;12.20;99.90;;;;;;4876383;29;20087;-78
2023/10/28 23:36:09;;;;;;;;;;;12.20;99.90;;;;;;4891116;29;20093;-77
2023/10/28 23:38:47;;;;;;;;;;;12.20;99.90;;;;;;4874560;29;19919;-78
2023/10/28 23:41:19;;;;;;;;;;;12.10;99.90;;;;;;4892842;29;19978;-77
2023/10/28 23:43:55;;;;;;;;;;;12.10;99.90;;;;;;4902477;29;19912;-77
2023/10/28 23:46:26;;;;;;;;;;;12.00;99.90;;;;;;4906205;29;19967;-77
2023/10/28 23:48:52;;;;;;;;;;;11.90;99.90;;;;;;4907045;29;19918;-78
2023/10/28 23:51:23;;;;;;;;;;;11.90;99.90;;;;;;4891691;29;19986;-78
2023/10/28 23:57:19;;;;;;;;;;;11.70;99.90;;;;;;4887347;29;19926;-78
